sensor_id;sensor_type;location;lat;lon;timestamp;P1;durP1;ratioP1;P2;durP2;ratioP2
9102;SDS011;4587;51.434;6.788;2023-12-29T00:00:29;9.37;;;2.30;;
9102;SDS011;4587;51.434;6.788;2023-12-29T00:02:55;7.43;;;2.20;;
9102;SDS011;4587;51.434;6.788;2023-12-29T00:05:20;10.90;;;2.53;;
9102;SDS011;4587;51.434;6.788;2023-12-29T00:07:46;6.50;;;2.43;;
9102;SDS011;4587;51.434;6.788;2023-12-29T00:10:11;7.83;;;2.27;;
9102;SDS011;4587;51.434;6.788;2023-12-29T00:12:37;8.03;;;2.67;;
9102;SDS011;4587;51.434;6.788;2023-12-29T00:15:03;10.03;;;2.53;;
9102;SDS011;4587;51.434;6.788;2023-12-29T00:17:28;7.73;;;2.50;;
9102;SDS011;4587;51.434;6.788;2023-12-29T00:19:54;12.43;;;2.80;;
9102;SDS011;4587;51.434;6.788;2023-12-29T00:22:20;7.90;;;2.27;;
9102;SDS011;4587;51.434;6.788;2023-12-29T00:24:46;7.60;;;2.30;;
9102;SDS011;4587;51.434;6.788;2023-12-29T00:27:11;8.03;;;2.30;;
9102;SDS011;4587;51.434;6.788;2023-12-29T00:29:38;7.17;;;2.33;;
9102;SDS011;4587;51.434;6.788;2023-12-29T00:32:04;14.23;;;3.43;;
9102;SDS011;4587;51.434;6.788;2023-12-29T00:34:30;9.70;;;2.80;;
9102;SDS011;4587;51.434;6.788;2023-12-29T00:36:56;8.00;;;2.40;;
9102;SDS011;4587;51.434;6.788;2023-12-29T00:39:21;8.03;;;2.43;;
9102;SDS011;4587;51.434;6.788;2023-12-29T00:41:53;5.30;;;2.50;;
9102;SDS011;4587;51.434;6.788;2023-12-29T00:44:20;12.67;;;3.33;;
9102;SDS011;4587;51.434;6.788;2023-12-29T00:46:45;8.17;;;2.27;;
9102;SDS011;4587;51.434;6.788;2023-12-29T00:49:11;8.10;;;2.33;;
9102;SDS011;4587;51.434;6.788;2023-12-29T00:51:40;7.53;;;2.47;;
9102;SDS011;4587;51.434;6.788;2023-12-29T00:54:08;10.87;;;2.73;;
9102;SDS011;4587;51.434;6.788;2023-12-29T00:56:34;12.00;;;2.23;;
9102;SDS011;4587;51.434;6.788;2023-12-29T00:58:59;8.73;;;2.03;;
9102;SDS011;4587;51.434;6.788;2023-12-29T01:01:25;10.90;;;2.63;;
9102;SDS011;4587;51.434;6.788;2023-12-29T01:03:50;6.70;;;2.47;;
9102;SDS011;4587;51.434;6.788;2023-12-29T01:06:19;8.30;;;2.70;;
9102;SDS011;4587;51.434;6.788;2023-12-29T01:08:45;12.27;;;2.80;;
9102;SDS011;4587;51.434;6.788;2023-12-29T01:11:11;8.87;;;2.50;;
9102;SDS011;4587;51.434;6.788;2023-12-29T01:13:36;8.23;;;2.40;;
9102;SDS011;4587;51.434;6.788;2023-12-29T01:16:02;9.27;;;2.17;;
9102;SDS011;4587;51.434;6.788;2023-12-29T01:18:27;7.97;;;2.40;;
9102;SDS011;4587;51.434;6.788;2023-12-29T01:20:53;8.60;;;2.73;;
9102;SDS011;4587;51.434;6.788;2023-12-29T01:23:19;9.93;;;2.10;;
9102;SDS011;4587;51.434;6.788;2023-12-29T01:25:44;11.07;;;2.47;;
9102;SDS011;4587;51.434;6.788;2023-12-29T01:28:10;7.93;;;2.10;;
9102;SDS011;4587;51.434;6.788;2023-12-29T01:30:35;8.30;;;2.30;;
9102;SDS011;4587;51.434;6.788;2023-12-29T01:33:01;7.83;;;3.17;;
9102;SDS011;4587;51.434;6.788;2023-12-29T01:35:26;8.40;;;3.40;;
9102;SDS011;4587;51.434;6.788;2023-12-29T01:37:52;12.07;;;3.20;;
9102;SDS011;4587;51.434;6.788;2023-12-29T01:40:18;8.20;;;2.23;;
9102;SDS011;4587;51.434;6.788;2023-12-29T01:42:43;10.57;;;2.33;;
9102;SDS011;4587;51.434;6.788;2023-12-29T01:45:14;6.33;;;2.27;;
9102;SDS011;4587;51.434;6.788;2023-12-29T01:47:47;7.47;;;2.27;;
9102;SDS011;4587;51.434;6.788;2023-12-29T01:50:13;7.47;;;2.10;;
9102;SDS011;4587;51.434;6.788;2023-12-29T01:52:39;6.07;;;1.70;;
9102;SDS011;4587;51.434;6.788;2023-12-29T01:55:07;10.20;;;2.43;;
9102;SDS011;4587;51.434;6.788;2023-12-29T01:57:35;12.33;;;3.00;;
9102;SDS011;4587;51.434;6.788;2023-12-29T02:00:01;7.10;;;2.20;;
9102;SDS011;4587;51.434;6.788;2023-12-29T02:02:27;7.97;;;2.40;;
9102;SDS011;4587;51.434;6.788;2023-12-29T02:04:53;11.13;;;2.10;;
9102;SDS011;4587;51.434;6.788;2023-12-29T02:07:19;9.47;;;1.90;;
9102;SDS011;4587;51.434;6.788;2023-12-29T02:09:45;10.20;;;2.30;;
9102;SDS011;4587;51.434;6.788;2023-12-29T02:12:11;10.87;;;2.30;;
9102;SDS011;4587;51.434;6.788;2023-12-29T02:14:37;11.53;;;2.40;;
9102;SDS011;4587;51.434;6.788;2023-12-29T02:17:10;10.07;;;2.30;;
9102;SDS011;4587;51.434;6.788;2023-12-29T02:19:43;13.20;;;2.57;;
9102;SDS011;4587;51.434;6.788;2023-12-29T02:22:11;10.43;;;2.57;;
9102;SDS011;4587;51.434;6.788;2023-12-29T02:24:38;6.47;;;2.03;;
9102;SDS011;4587;51.434;6.788;2023-12-29T02:27:18;6.93;;;2.13;;
9102;SDS011;4587;51.434;6.788;2023-12-29T02:29:45;11.17;;;2.33;;
9102;SDS011;4587;51.434;6.788;2023-12-29T02:32:21;9.23;;;2.20;;
9102;SDS011;4587;51.434;6.788;2023-12-29T02:34:48;6.47;;;1.70;;
9102;SDS011;4587;51.434;6.788;2023-12-29T02:37:16;9.80;;;2.40;;
9102;SDS011;4587;51.434;6.788;2023-12-29T02:39:44;6.60;;;2.10;;
9102;SDS011;4587;51.434;6.788;2023-12-29T02:42:09;8.20;;;2.27;;
9102;SDS011;4587;51.434;6.788;2023-12-29T02:44:35;9.23;;;2.33;;
9102;SDS011;4587;51.434;6.788;2023-12-29T02:47:00;9.17;;;2.07;;
9102;SDS011;4587;51.434;6.788;2023-12-29T02:49:28;9.30;;;2.20;;
9102;SDS011;4587;51.434;6.788;2023-12-29T02:51:54;6.47;;;1.70;;
9102;SDS011;4587;51.434;6.788;2023-12-29T02:54:19;6.70;;;2.53;;
9102;SDS011;4587;51.434;6.788;2023-12-29T02:56:45;9.00;;;2.30;;
9102;SDS011;4587;51.434;6.788;2023-12-29T02:59:10;9.33;;;2.30;;
9102;SDS011;4587;51.434;6.788;2023-12-29T03:01:36;7.10;;;2.33;;
9102;SDS011;4587;51.434;6.788;2023-12-29T03:04:01;7.63;;;2.20;;
9102;SDS011;4587;51.434;6.788;2023-12-29T03:06:27;7.40;;;2.10;;
9102;SDS011;4587;51.434;6.788;2023-12-29T03:08:53;7.43;;;2.20;;
9102;SDS011;4587;51.434;6.788;2023-12-29T03:11:18;7.30;;;2.00;;
9102;SDS011;4587;51.434;6.788;2023-12-29T03:13:44;9.73;;;2.33;;
9102;SDS011;4587;51.434;6.788;2023-12-29T03:16:09;6.17;;;2.00;;
9102;SDS011;4587;51.434;6.788;2023-12-29T03:18:35;7.03;;;2.03;;
9102;SDS011;4587;51.434;6.788;2023-12-29T03:21:04;7.73;;;2.27;;
9102;SDS011;4587;51.434;6.788;2023-12-29T03:23:30;8.20;;;2.30;;
9102;SDS011;4587;51.434;6.788;2023-12-29T03:25:56;7.97;;;1.87;;
9102;SDS011;4587;51.434;6.788;2023-12-29T03:28:21;10.27;;;2.30;;
9102;SDS011;4587;51.434;6.788;2023-12-29T03:30:47;7.73;;;2.00;;
9102;SDS011;4587;51.434;6.788;2023-12-29T03:33:12;10.27;;;2.17;;
9102;SDS011;4587;51.434;6.788;2023-12-29T03:35:39;8.33;;;2.30;;
9102;SDS011;4587;51.434;6.788;2023-12-29T03:38:04;9.63;;;2.10;;
9102;SDS011;4587;51.434;6.788;2023-12-29T03:40:30;6.23;;;1.83;;
9102;SDS011;4587;51.434;6.788;2023-12-29T03:42:55;9.77;;;1.90;;
9102;SDS011;4587;51.434;6.788;2023-12-29T03:45:21;8.57;;;2.03;;
9102;SDS011;4587;51.434;6.788;2023-12-29T03:47:46;9.07;;;2.53;;
9102;SDS011;4587;51.434;6.788;2023-12-29T03:50:12;7.70;;;2.03;;
9102;SDS011;4587;51.434;6.788;2023-12-29T03:52:37;8.27;;;2.20;;
9102;SDS011;4587;51.434;6.788;2023-12-29T03:55:04;6.30;;;1.93;;
9102;SDS011;4587;51.434;6.788;2023-12-29T03:57:30;8.17;;;2.00;;
9102;SDS011;4587;51.434;6.788;2023-12-29T03:59:55;6.57;;;2.20;;
9102;SDS011;4587;51.434;6.788;2023-12-29T04:02:21;9.47;;;2.00;;
9102;SDS011;4587;51.434;6.788;2023-12-29T04:04:46;8.20;;;2.00;;
9102;SDS011;4587;51.434;6.788;2023-12-29T04:07:12;8.07;;;2.13;;
9102;SDS011;4587;51.434;6.788;2023-12-29T04:09:37;9.60;;;2.03;;
9102;SDS011;4587;51.434;6.788;2023-12-29T04:12:03;3.83;;;1.70;;
9102;SDS011;4587;51.434;6.788;2023-12-29T04:14:28;9.67;;;2.10;;
9102;SDS011;4587;51.434;6.788;2023-12-29T04:16:54;5.90;;;1.60;;
9102;SDS011;4587;51.434;6.788;2023-12-29T04:19:19;7.87;;;1.93;;
9102;SDS011;4587;51.434;6.788;2023-12-29T04:21:45;7.07;;;1.60;;
9102;SDS011;4587;51.434;6.788;2023-12-29T04:24:10;11.73;;;2.37;;
9102;SDS011;4587;51.434;6.788;2023-12-29T04:26:36;7.67;;;1.63;;
9102;SDS011;4587;51.434;6.788;2023-12-29T04:29:02;6.20;;;2.17;;
9102;SDS011;4587;51.434;6.788;2023-12-29T04:31:28;7.80;;;1.97;;
9102;SDS011;4587;51.434;6.788;2023-12-29T04:33:53;7.77;;;2.00;;
9102;SDS011;4587;51.434;6.788;2023-12-29T04:36:19;8.70;;;2.00;;
9102;SDS011;4587;51.434;6.788;2023-12-29T04:38:44;8.17;;;1.97;;
9102;SDS011;4587;51.434;6.788;2023-12-29T04:41:11;10.13;;;2.37;;
9102;SDS011;4587;51.434;6.788;2023-12-29T04:43:37;6.77;;;2.10;;
9102;SDS011;4587;51.434;6.788;2023-12-29T04:46:03;6.30;;;1.63;;
9102;SDS011;4587;51.434;6.788;2023-12-29T04:48:29;6.03;;;2.10;;
9102;SDS011;4587;51.434;6.788;2023-12-29T04:50:54;7.60;;;1.90;;
9102;SDS011;4587;51.434;6.788;2023-12-29T04:53:20;6.60;;;2.00;;
9102;SDS011;4587;51.434;6.788;2023-12-29T04:55:45;6.23;;;1.80;;
9102;SDS011;4587;51.434;6.788;2023-12-29T04:58:11;9.47;;;2.13;;
9102;SDS011;4587;51.434;6.788;2023-12-29T05:00:36;7.33;;;1.77;;
9102;SDS011;4587;51.434;6.788;2023-12-29T05:03:02;10.03;;;2.10;;
9102;SDS011;4587;51.434;6.788;2023-12-29T05:05:28;8.60;;;1.83;;
9102;SDS011;4587;51.434;6.788;2023-12-29T05:07:53;7.77;;;1.93;;
9102;SDS011;4587;51.434;6.788;2023-12-29T05:10:19;6.57;;;1.97;;
9102;SDS011;4587;51.434;6.788;2023-12-29T05:12:44;9.00;;;2.40;;
9102;SDS011;4587;51.434;6.788;2023-12-29T05:15:10;7.23;;;1.90;;
9102;SDS011;4587;51.434;6.788;2023-12-29T05:17:35;10.23;;;1.90;;
9102;SDS011;4587;51.434;6.788;2023-12-29T05:20:01;7.63;;;1.70;;
9102;SDS011;4587;51.434;6.788;2023-12-29T05:22:26;7.53;;;1.97;;
9102;SDS011;4587;51.434;6.788;2023-12-29T05:24:52;7.97;;;2.00;;
9102;SDS011;4587;51.434;6.788;2023-12-29T05:27:18;8.73;;;1.97;;
9102;SDS011;4587;51.434;6.788;2023-12-29T05:29:43;9.27;;;2.40;;
9102;SDS011;4587;51.434;6.788;2023-12-29T05:32:09;10.40;;;1.90;;
9102;SDS011;4587;51.434;6.788;2023-12-29T05:34:35;9.90;;;2.10;;
9102;SDS011;4587;51.434;6.788;2023-12-29T05:37:00;5.60;;;1.80;;
9102;SDS011;4587;51.434;6.788;2023-12-29T05:39:26;7.70;;;1.80;;
9102;SDS011;4587;51.434;6.788;2023-12-29T05:41:51;9.77;;;2.00;;
9102;SDS011;4587;51.434;6.788;2023-12-29T05:44:17;8.87;;;2.27;;
9102;SDS011;4587;51.434;6.788;2023-12-29T05:46:45;8.30;;;2.23;;
9102;SDS011;4587;51.434;6.788;2023-12-29T05:49:12;9.93;;;1.93;;
9102;SDS011;4587;51.434;6.788;2023-12-29T05:51:37;8.93;;;2.03;;
9102;SDS011;4587;51.434;6.788;2023-12-29T05:54:03;10.90;;;1.93;;
9102;SDS011;4587;51.434;6.788;2023-12-29T05:56:28;8.53;;;2.10;;
9102;SDS011;4587;51.434;6.788;2023-12-29T05:58:54;11.17;;;2.00;;
9102;SDS011;4587;51.434;6.788;2023-12-29T06:01:20;7.03;;;2.10;;
9102;SDS011;4587;51.434;6.788;2023-12-29T06:03:46;9.40;;;2.33;;
9102;SDS011;4587;51.434;6.788;2023-12-29T06:06:11;10.17;;;2.27;;
9102;SDS011;4587;51.434;6.788;2023-12-29T06:08:37;8.63;;;2.20;;
9102;SDS011;4587;51.434;6.788;2023-12-29T06:11:02;11.30;;;2.30;;
9102;SDS011;4587;51.434;6.788;2023-12-29T06:13:28;8.77;;;1.90;;
9102;SDS011;4587;51.434;6.788;2023-12-29T06:15:54;9.60;;;2.17;;
9102;SDS011;4587;51.434;6.788;2023-12-29T06:18:20;8.07;;;1.90;;
9102;SDS011;4587;51.434;6.788;2023-12-29T06:20:46;9.77;;;2.20;;
9102;SDS011;4587;51.434;6.788;2023-12-29T06:23:11;10.83;;;1.87;;
9102;SDS011;4587;51.434;6.788;2023-12-29T06:25:37;7.87;;;1.90;;
9102;SDS011;4587;51.434;6.788;2023-12-29T06:28:04;7.57;;;1.80;;
9102;SDS011;4587;51.434;6.788;2023-12-29T06:30:31;7.90;;;1.70;;
9102;SDS011;4587;51.434;6.788;2023-12-29T06:32:57;8.57;;;1.83;;
9102;SDS011;4587;51.434;6.788;2023-12-29T06:35:23;10.20;;;2.17;;
9102;SDS011;4587;51.434;6.788;2023-12-29T06:37:48;8.83;;;1.93;;
9102;SDS011;4587;51.434;6.788;2023-12-29T06:40:17;8.60;;;2.30;;
9102;SDS011;4587;51.434;6.788;2023-12-29T06:42:43;10.57;;;2.20;;
9102;SDS011;4587;51.434;6.788;2023-12-29T06:45:08;10.40;;;1.90;;
9102;SDS011;4587;51.434;6.788;2023-12-29T06:47:34;7.20;;;1.70;;
9102;SDS011;4587;51.434;6.788;2023-12-29T06:49:59;7.20;;;1.60;;
9102;SDS011;4587;51.434;6.788;2023-12-29T06:52:27;7.57;;;1.73;;
9102;SDS011;4587;51.434;6.788;2023-12-29T06:54:55;7.57;;;1.80;;
9102;SDS011;4587;51.434;6.788;2023-12-29T06:57:20;8.63;;;1.93;;
9102;SDS011;4587;51.434;6.788;2023-12-29T06:59:46;6.77;;;1.70;;
9102;SDS011;4587;51.434;6.788;2023-12-29T07:02:11;8.20;;;2.03;;
9102;SDS011;4587;51.434;6.788;2023-12-29T07:04:40;8.97;;;1.80;;
9102;SDS011;4587;51.434;6.788;2023-12-29T07:07:06;7.57;;;1.50;;
9102;SDS011;4587;51.434;6.788;2023-12-29T07:09:32;5.37;;;1.53;;
9102;SDS011;4587;51.434;6.788;2023-12-29T07:11:57;9.47;;;1.90;;
9102;SDS011;4587;51.434;6.788;2023-12-29T07:14:23;5.40;;;1.73;;
9102;SDS011;4587;51.434;6.788;2023-12-29T07:16:49;5.57;;;1.80;;
9102;SDS011;4587;51.434;6.788;2023-12-29T07:19:14;7.63;;;1.73;;
9102;SDS011;4587;51.434;6.788;2023-12-29T07:21:40;9.17;;;1.90;;
9102;SDS011;4587;51.434;6.788;2023-12-29T07:24:05;9.03;;;1.90;;
9102;SDS011;4587;51.434;6.788;2023-12-29T07:26:34;5.90;;;1.80;;
9102;SDS011;4587;51.434;6.788;2023-12-29T07:29:00;8.00;;;1.60;;
9102;SDS011;4587;51.434;6.788;2023-12-29T07:31:25;7.33;;;2.00;;
9102;SDS011;4587;51.434;6.788;2023-12-29T07:33:51;5.67;;;1.70;;
9102;SDS011;4587;51.434;6.788;2023-12-29T07:36:16;7.17;;;1.53;;
9102;SDS011;4587;51.434;6.788;2023-12-29T07:38:42;11.40;;;2.50;;
9102;SDS011;4587;51.434;6.788;2023-12-29T07:41:08;7.67;;;1.87;;
9102;SDS011;4587;51.434;6.788;2023-12-29T07:43:34;4.97;;;1.30;;
9102;SDS011;4587;51.434;6.788;2023-12-29T07:46:01;10.30;;;2.03;;
9102;SDS011;4587;51.434;6.788;2023-12-29T07:48:27;7.70;;;1.80;;
9102;SDS011;4587;51.434;6.788;2023-12-29T07:50:52;6.47;;;1.83;;
9102;SDS011;4587;51.434;6.788;2023-12-29T07:53:18;6.90;;;1.83;;
9102;SDS011;4587;51.434;6.788;2023-12-29T07:55:44;7.53;;;2.03;;
9102;SDS011;4587;51.434;6.788;2023-12-29T07:58:11;7.83;;;1.70;;
9102;SDS011;4587;51.434;6.788;2023-12-29T08:00:37;8.83;;;1.80;;
9102;SDS011;4587;51.434;6.788;2023-12-29T08:03:02;9.07;;;1.80;;
9102;SDS011;4587;51.434;6.788;2023-12-29T08:05:28;9.20;;;2.07;;
9102;SDS011;4587;51.434;6.788;2023-12-29T08:07:54;10.07;;;1.90;;
9102;SDS011;4587;51.434;6.788;2023-12-29T08:10:19;9.63;;;2.13;;
9102;SDS011;4587;51.434;6.788;2023-12-29T08:12:45;8.03;;;1.80;;
9102;SDS011;4587;51.434;6.788;2023-12-29T08:15:11;10.07;;;2.13;;
9102;SDS011;4587;51.434;6.788;2023-12-29T08:17:36;8.17;;;2.10;;
9102;SDS011;4587;51.434;6.788;2023-12-29T08:20:03;7.80;;;2.00;;
9102;SDS011;4587;51.434;6.788;2023-12-29T08:22:29;7.10;;;2.03;;
9102;SDS011;4587;51.434;6.788;2023-12-29T08:24:57;7.10;;;2.10;;
9102;SDS011;4587;51.434;6.788;2023-12-29T08:27:23;7.00;;;1.93;;
9102;SDS011;4587;51.434;6.788;2023-12-29T08:29:52;5.03;;;1.87;;
9102;SDS011;4587;51.434;6.788;2023-12-29T08:32:19;5.33;;;2.40;;
9102;SDS011;4587;51.434;6.788;2023-12-29T08:34:44;10.83;;;3.33;;
9102;SDS011;4587;51.434;6.788;2023-12-29T08:37:10;10.67;;;3.60;;
9102;SDS011;4587;51.434;6.788;2023-12-29T08:39:35;9.83;;;3.73;;
9102;SDS011;4587;51.434;6.788;2023-12-29T08:42:01;7.03;;;3.30;;
9102;SDS011;4587;51.434;6.788;2023-12-29T08:44:27;7.00;;;3.00;;
9102;SDS011;4587;51.434;6.788;2023-12-29T08:46:52;7.60;;;2.60;;
9102;SDS011;4587;51.434;6.788;2023-12-29T08:49:18;7.70;;;2.57;;
9102;SDS011;4587;51.434;6.788;2023-12-29T08:51:43;8.90;;;2.63;;
9102;SDS011;4587;51.434;6.788;2023-12-29T08:54:09;6.50;;;2.47;;
9102;SDS011;4587;51.434;6.788;2023-12-29T08:56:34;6.60;;;2.93;;
9102;SDS011;4587;51.434;6.788;2023-12-29T08:59:00;7.93;;;2.50;;
9102;SDS011;4587;51.434;6.788;2023-12-29T09:01:25;5.53;;;2.00;;
9102;SDS011;4587;51.434;6.788;2023-12-29T09:03:51;5.30;;;1.60;;
9102;SDS011;4587;51.434;6.788;2023-12-29T09:06:16;5.37;;;1.30;;
9102;SDS011;4587;51.434;6.788;2023-12-29T09:08:42;6.53;;;1.57;;
9102;SDS011;4587;51.434;6.788;2023-12-29T09:11:07;3.43;;;1.17;;
9102;SDS011;4587;51.434;6.788;2023-12-29T09:13:33;3.67;;;1.20;;
9102;SDS011;4587;51.434;6.788;2023-12-29T09:15:59;4.50;;;1.50;;
9102;SDS011;4587;51.434;6.788;2023-12-29T09:18:25;4.13;;;1.57;;
9102;SDS011;4587;51.434;6.788;2023-12-29T09:20:50;6.07;;;2.20;;
9102;SDS011;4587;51.434;6.788;2023-12-29T09:23:16;5.23;;;2.20;;
9102;SDS011;4587;51.434;6.788;2023-12-29T09:25:41;6.13;;;2.00;;
9102;SDS011;4587;51.434;6.788;2023-12-29T09:28:07;4.47;;;1.40;;
9102;SDS011;4587;51.434;6.788;2023-12-29T09:30:32;3.03;;;1.30;;
9102;SDS011;4587;51.434;6.788;2023-12-29T09:32:58;3.77;;;1.33;;
9102;SDS011;4587;51.434;6.788;2023-12-29T09:35:23;2.93;;;1.43;;
9102;SDS011;4587;51.434;6.788;2023-12-29T09:37:49;2.13;;;0.90;;
9102;SDS011;4587;51.434;6.788;2023-12-29T09:40:15;1.90;;;0.63;;
9102;SDS011;4587;51.434;6.788;2023-12-29T09:42:42;2.57;;;0.87;;
9102;SDS011;4587;51.434;6.788;2023-12-29T09:45:10;2.40;;;0.80;;
9102;SDS011;4587;51.434;6.788;2023-12-29T09:47:38;1.83;;;0.60;;
9102;SDS011;4587;51.434;6.788;2023-12-29T09:50:05;1.70;;;0.80;;
9102;SDS011;4587;51.434;6.788;2023-12-29T09:52:32;1.23;;;0.60;;
9102;SDS011;4587;51.434;6.788;2023-12-29T09:54:59;2.67;;;0.90;;
9102;SDS011;4587;51.434;6.788;2023-12-29T09:57:25;2.73;;;0.80;;
9102;SDS011;4587;51.434;6.788;2023-12-29T09:59:51;1.50;;;0.77;;
9102;SDS011;4587;51.434;6.788;2023-12-29T10:02:18;3.80;;;0.80;;
9102;SDS011;4587;51.434;6.788;2023-12-29T10:04:47;2.77;;;0.80;;
9102;SDS011;4587;51.434;6.788;2023-12-29T10:07:46;2.30;;;0.73;;
9102;SDS011;4587;51.434;6.788;2023-12-29T10:10:05;1.40;;;0.53;;
9102;SDS011;4587;51.434;6.788;2023-12-29T10:12:32;1.30;;;0.60;;
9102;SDS011;4587;51.434;6.788;2023-12-29T10:15:05;1.17;;;0.60;;
9102;SDS011;4587;51.434;6.788;2023-12-29T10:20:21;0.90;;;0.53;;
9102;SDS011;4587;51.434;6.788;2023-12-29T10:23:15;1.30;;;0.60;;
9102;SDS011;4587;51.434;6.788;2023-12-29T10:25:43;1.27;;;0.60;;
9102;SDS011;4587;51.434;6.788;2023-12-29T10:28:09;1.40;;;0.90;;
9102;SDS011;4587;51.434;6.788;2023-12-29T10:30:35;2.80;;;1.30;;
9102;SDS011;4587;51.434;6.788;2023-12-29T10:33:02;4.07;;;1.93;;
9102;SDS011;4587;51.434;6.788;2023-12-29T10:35:29;3.57;;;2.10;;
9102;SDS011;4587;51.434;6.788;2023-12-29T10:38:07;5.77;;;2.20;;
9102;SDS011;4587;51.434;6.788;2023-12-29T10:40:36;3.23;;;1.67;;
9102;SDS011;4587;51.434;6.788;2023-12-29T10:43:02;2.63;;;1.60;;
9102;SDS011;4587;51.434;6.788;2023-12-29T10:45:33;3.00;;;1.30;;
9102;SDS011;4587;51.434;6.788;2023-12-29T10:47:59;3.93;;;1.57;;
9102;SDS011;4587;51.434;6.788;2023-12-29T10:50:25;3.07;;;1.00;;
9102;SDS011;4587;51.434;6.788;2023-12-29T10:52:52;2.00;;;0.97;;
9102;SDS011;4587;51.434;6.788;2023-12-29T10:55:36;3.37;;;1.20;;
9102;SDS011;4587;51.434;6.788;2023-12-29T10:58:01;3.10;;;1.10;;
9102;SDS011;4587;51.434;6.788;2023-12-29T11:00:30;2.17;;;1.07;;
9102;SDS011;4587;51.434;6.788;2023-12-29T11:02:56;3.03;;;1.00;;
9102;SDS011;4587;51.434;6.788;2023-12-29T11:05:24;2.27;;;0.90;;
9102;SDS011;4587;51.434;6.788;2023-12-29T11:07:51;3.10;;;1.20;;
9102;SDS011;4587;51.434;6.788;2023-12-29T11:10:19;3.17;;;1.10;;
9102;SDS011;4587;51.434;6.788;2023-12-29T11:12:46;2.20;;;1.10;;
9102;SDS011;4587;51.434;6.788;2023-12-29T11:15:13;1.87;;;1.00;;
9102;SDS011;4587;51.434;6.788;2023-12-29T11:17:41;2.87;;;1.03;;
9102;SDS011;4587;51.434;6.788;2023-12-29T11:20:17;2.70;;;1.10;;
9102;SDS011;4587;51.434;6.788;2023-12-29T11:22:45;1.57;;;0.93;;
9102;SDS011;4587;51.434;6.788;2023-12-29T11:25:11;2.93;;;1.00;;
9102;SDS011;4587;51.434;6.788;2023-12-29T11:27:37;2.53;;;1.20;;
9102;SDS011;4587;51.434;6.788;2023-12-29T11:30:04;4.20;;;1.10;;
9102;SDS011;4587;51.434;6.788;2023-12-29T11:32:32;3.23;;;1.27;;
9102;SDS011;4587;51.434;6.788;2023-12-29T11:35:18;4.10;;;1.20;;
9102;SDS011;4587;51.434;6.788;2023-12-29T11:40:41;4.57;;;1.17;;
9102;SDS011;4587;51.434;6.788;2023-12-29T11:43:13;3.63;;;1.07;;
9102;SDS011;4587;51.434;6.788;2023-12-29T11:45:41;3.87;;;1.33;;
9102;SDS011;4587;51.434;6.788;2023-12-29T11:48:07;3.63;;;1.20;;
9102;SDS011;4587;51.434;6.788;2023-12-29T11:50:33;2.60;;;1.00;;
9102;SDS011;4587;51.434;6.788;2023-12-29T11:53:04;2.40;;;1.20;;
9102;SDS011;4587;51.434;6.788;2023-12-29T11:55:33;7.47;;;1.67;;
9102;SDS011;4587;51.434;6.788;2023-12-29T11:58:00;2.33;;;1.27;;
9102;SDS011;4587;51.434;6.788;2023-12-29T12:00:42;4.40;;;1.37;;
9102;SDS011;4587;51.434;6.788;2023-12-29T12:05:48;3.00;;;1.20;;
9102;SDS011;4587;51.434;6.788;2023-12-29T12:10:56;3.17;;;1.10;;
9102;SDS011;4587;51.434;6.788;2023-12-29T12:19:07;4.13;;;1.17;;
9102;SDS011;4587;51.434;6.788;2023-12-29T12:21:33;2.57;;;1.10;;
9102;SDS011;4587;51.434;6.788;2023-12-29T12:23:59;3.67;;;1.43;;
9102;SDS011;4587;51.434;6.788;2023-12-29T12:26:28;3.20;;;1.47;;
9102;SDS011;4587;51.434;6.788;2023-12-29T12:28:55;4.47;;;1.50;;
9102;SDS011;4587;51.434;6.788;2023-12-29T12:31:22;3.60;;;1.40;;
9102;SDS011;4587;51.434;6.788;2023-12-29T12:33:54;3.93;;;1.40;;
9102;SDS011;4587;51.434;6.788;2023-12-29T12:36:20;5.23;;;1.70;;
9102;SDS011;4587;51.434;6.788;2023-12-29T12:41:19;3.60;;;1.67;;
9102;SDS011;4587;51.434;6.788;2023-12-29T12:43:50;2.97;;;1.27;;
9102;SDS011;4587;51.434;6.788;2023-12-29T12:46:23;4.63;;;1.20;;
9102;SDS011;4587;51.434;6.788;2023-12-29T12:48:52;5.57;;;1.50;;
9102;SDS011;4587;51.434;6.788;2023-12-29T12:51:21;3.53;;;1.50;;
9102;SDS011;4587;51.434;6.788;2023-12-29T12:53:47;3.27;;;1.30;;
9102;SDS011;4587;51.434;6.788;2023-12-29T12:56:14;4.13;;;1.43;;
9102;SDS011;4587;51.434;6.788;2023-12-29T12:58:41;6.47;;;2.40;;
9102;SDS011;4587;51.434;6.788;2023-12-29T13:01:07;6.70;;;2.60;;
9102;SDS011;4587;51.434;6.788;2023-12-29T13:03:33;6.70;;;1.80;;
9102;SDS011;4587;51.434;6.788;2023-12-29T13:06:01;5.00;;;1.40;;
9102;SDS011;4587;51.434;6.788;2023-12-29T13:08:29;5.07;;;1.90;;
9102;SDS011;4587;51.434;6.788;2023-12-29T13:10:55;2.73;;;1.30;;
9102;SDS011;4587;51.434;6.788;2023-12-29T13:13:21;5.43;;;1.60;;
9102;SDS011;4587;51.434;6.788;2023-12-29T13:15:48;4.50;;;1.10;;
9102;SDS011;4587;51.434;6.788;2023-12-29T13:18:14;4.17;;;1.50;;
9102;SDS011;4587;51.434;6.788;2023-12-29T13:20:46;4.07;;;1.23;;
9102;SDS011;4587;51.434;6.788;2023-12-29T13:23:12;4.87;;;1.30;;
9102;SDS011;4587;51.434;6.788;2023-12-29T13:25:39;4.23;;;1.30;;
9102;SDS011;4587;51.434;6.788;2023-12-29T13:28:07;2.97;;;1.17;;
9102;SDS011;4587;51.434;6.788;2023-12-29T13:30:33;4.17;;;1.50;;
9102;SDS011;4587;51.434;6.788;2023-12-29T13:33:02;2.77;;;1.23;;
9102;SDS011;4587;51.434;6.788;2023-12-29T13:35:39;2.67;;;1.40;;
9102;SDS011;4587;51.434;6.788;2023-12-29T13:38:18;3.83;;;1.50;;
9102;SDS011;4587;51.434;6.788;2023-12-29T13:41:02;3.30;;;1.20;;
9102;SDS011;4587;51.434;6.788;2023-12-29T13:43:32;3.70;;;1.30;;
9102;SDS011;4587;51.434;6.788;2023-12-29T13:46:00;4.00;;;1.40;;
9102;SDS011;4587;51.434;6.788;2023-12-29T13:48:27;3.40;;;1.50;;
9102;SDS011;4587;51.434;6.788;2023-12-29T13:50:54;3.77;;;1.50;;
9102;SDS011;4587;51.434;6.788;2023-12-29T13:53:20;3.43;;;1.40;;
9102;SDS011;4587;51.434;6.788;2023-12-29T13:55:47;5.93;;;1.60;;
9102;SDS011;4587;51.434;6.788;2023-12-29T13:58:13;3.90;;;1.60;;
9102;SDS011;4587;51.434;6.788;2023-12-29T14:00:40;4.47;;;1.67;;
9102;SDS011;4587;51.434;6.788;2023-12-29T14:03:10;3.70;;;1.53;;
9102;SDS011;4587;51.434;6.788;2023-12-29T14:06:03;5.60;;;1.87;;
9102;SDS011;4587;51.434;6.788;2023-12-29T14:08:32;5.57;;;1.60;;
9102;SDS011;4587;51.434;6.788;2023-12-29T14:11:07;5.77;;;1.50;;
9102;SDS011;4587;51.434;6.788;2023-12-29T14:13:42;5.53;;;1.53;;
9102;SDS011;4587;51.434;6.788;2023-12-29T14:16:08;3.27;;;1.40;;
9102;SDS011;4587;51.434;6.788;2023-12-29T14:21:27;6.70;;;1.53;;
9102;SDS011;4587;51.434;6.788;2023-12-29T14:24:08;5.30;;;1.60;;
9102;SDS011;4587;51.434;6.788;2023-12-29T14:26:36;4.33;;;1.40;;
9102;SDS011;4587;51.434;6.788;2023-12-29T14:29:07;1.93;;;1.17;;
9102;SDS011;4587;51.434;6.788;2023-12-29T14:31:42;4.40;;;1.20;;
9102;SDS011;4587;51.434;6.788;2023-12-29T14:34:09;3.00;;;1.33;;
9102;SDS011;4587;51.434;6.788;2023-12-29T14:36:35;3.30;;;1.17;;
9102;SDS011;4587;51.434;6.788;2023-12-29T14:39:02;5.67;;;1.67;;
9102;SDS011;4587;51.434;6.788;2023-12-29T14:41:29;2.43;;;1.27;;
9102;SDS011;4587;51.434;6.788;2023-12-29T14:43:54;3.17;;;1.17;;
9102;SDS011;4587;51.434;6.788;2023-12-29T14:46:20;2.90;;;0.97;;
9102;SDS011;4587;51.434;6.788;2023-12-29T14:48:46;3.00;;;1.20;;
9102;SDS011;4587;51.434;6.788;2023-12-29T14:51:12;3.00;;;1.00;;
9102;SDS011;4587;51.434;6.788;2023-12-29T14:53:38;2.27;;;1.00;;
9102;SDS011;4587;51.434;6.788;2023-12-29T14:56:04;3.80;;;1.03;;
9102;SDS011;4587;51.434;6.788;2023-12-29T14:58:30;2.10;;;1.40;;
9102;SDS011;4587;51.434;6.788;2023-12-29T15:01:01;3.53;;;1.50;;
9102;SDS011;4587;51.434;6.788;2023-12-29T15:03:27;3.27;;;1.30;;
9102;SDS011;4587;51.434;6.788;2023-12-29T15:05:53;3.27;;;1.47;;
9102;SDS011;4587;51.434;6.788;2023-12-29T15:08:18;4.20;;;1.47;;
9102;SDS011;4587;51.434;6.788;2023-12-29T15:10:44;1.40;;;0.90;;
9102;SDS011;4587;51.434;6.788;2023-12-29T15:13:10;2.13;;;1.10;;
9102;SDS011;4587;51.434;6.788;2023-12-29T15:15:36;2.13;;;1.20;;
9102;SDS011;4587;51.434;6.788;2023-12-29T15:18:02;1.77;;;0.80;;
9102;SDS011;4587;51.434;6.788;2023-12-29T15:20:28;2.53;;;1.03;;
9102;SDS011;4587;51.434;6.788;2023-12-29T15:22:53;1.63;;;1.00;;
9102;SDS011;4587;51.434;6.788;2023-12-29T15:25:20;1.67;;;0.83;;
9102;SDS011;4587;51.434;6.788;2023-12-29T15:27:48;2.53;;;0.80;;
9102;SDS011;4587;51.434;6.788;2023-12-29T15:30:13;1.57;;;0.90;;
9102;SDS011;4587;51.434;6.788;2023-12-29T15:32:39;2.53;;;1.13;;
9102;SDS011;4587;51.434;6.788;2023-12-29T15:35:05;2.67;;;1.03;;